createdAt,value
2022-11-08T00:03:18.649Z,97247.53
2022-11-08T00:08:40.018Z,97244.25
2022-11-08T00:13:59.980Z,97247.94
2022-11-08T00:19:03.441Z,97244.31
2022-11-08T00:24:07.692Z,97243.69
2022-11-08T00:29:12.477Z,97243.47
2022-11-08T00:34:16.033Z,97237.38
2022-11-08T00:39:19.599Z,97239.31
2022-11-08T00:44:24.614Z,97238.06
2022-11-08T00:49:28.205Z,97250.38
2022-11-08T00:54:31.730Z,97262.56
2022-11-08T00:59:37.058Z,97263.00
2022-11-08T01:04:40.567Z,97261.00
2022-11-08T01:09:44.092Z,97264.63
2022-11-08T01:14:49.008Z,97248.94
2022-11-08T01:19:52.465Z,97252.88
2022-11-08T01:24:55.922Z,97252.16
2022-11-08T01:30:00.747Z,97253.19
2022-11-08T01:35:04.551Z,97255.00
2022-11-08T01:40:10.040Z,97245.97
2022-11-08T01:45:15.148Z,97243.50
2022-11-08T01:50:20.016Z,97240.91
2022-11-08T01:55:30.275Z,97234.34
2022-11-08T02:00:38.445Z,97232.16
2022-11-08T02:05:41.942Z,97217.56
2022-11-08T02:10:49.111Z,97213.63
2022-11-08T02:15:55.021Z,97215.38
2022-11-08T02:21:05.749Z,97222.22
2022-11-08T02:26:10.890Z,97223.47
2022-11-08T02:31:16.436Z,97214.97
2022-11-08T02:36:22.755Z,97209.31
2022-11-08T02:41:27.719Z,97218.06
2022-11-08T02:46:31.280Z,97213.44
2022-11-08T02:51:34.779Z,97206.97
2022-11-08T02:56:39.706Z,97198.88
2022-11-08T03:01:43.518Z,97200.03
2022-11-08T03:06:47.375Z,97196.25
2022-11-08T03:11:52.414Z,97186.75
2022-11-08T03:16:55.900Z,97189.50
2022-11-08T03:21:59.498Z,97191.38
2022-11-08T03:27:04.329Z,97200.09
2022-11-08T03:32:07.830Z,97199.81
2022-11-08T03:37:11.406Z,97197.66
2022-11-08T03:42:16.213Z,97201.88
2022-11-08T03:47:19.649Z,97204.28
2022-11-08T03:52:23.116Z,97207.63
2022-11-08T03:57:27.959Z,97205.13
2022-11-08T04:02:31.569Z,97202.41
2022-11-08T04:07:34.991Z,97208.16
2022-11-08T04:12:59.044Z,97207.84
2022-11-08T04:18:20.431Z,97207.78
2022-11-08T04:23:24.123Z,97210.94
2022-11-08T04:28:30.838Z,97206.47
2022-11-08T04:33:34.351Z,97203.34
2022-11-08T04:38:38.268Z,97208.63
2022-11-08T04:43:43.425Z,97205.41
2022-11-08T04:48:47.820Z,97196.78
2022-11-08T04:53:51.750Z,97198.75
2022-11-08T04:58:57.875Z,97186.56
2022-11-08T05:04:01.517Z,97176.09
2022-11-08T05:09:05.537Z,97169.63
2022-11-08T05:14:10.556Z,97175.63
2022-11-08T05:19:14.276Z,97162.81
2022-11-08T05:24:19.070Z,97164.56
2022-11-08T05:29:24.491Z,97154.47
2022-11-08T05:34:27.913Z,97154.09
2022-11-08T05:44:56.288Z,97139.78
2022-11-08T05:49:59.728Z,97140.25
2022-11-08T05:55:03.244Z,97130.25
2022-11-08T06:00:10.152Z,97127.84
2022-11-08T06:05:15.030Z,97123.03
2022-11-08T06:10:19.268Z,97119.16
2022-11-08T06:15:24.106Z,97116.38
2022-11-08T06:20:27.767Z,97118.44
2022-11-08T06:25:31.221Z,97120.09
2022-11-08T06:30:35.979Z,97117.94
2022-11-08T06:35:39.734Z,97122.56
2022-11-08T06:40:43.104Z,97137.03
2022-11-08T06:45:48.575Z,97143.16
2022-11-08T06:50:51.921Z,97145.41
2022-11-08T06:55:55.314Z,97142.47
2022-11-08T07:01:03.530Z,97137.09
2022-11-08T07:06:07.805Z,97140.94
2022-11-08T07:11:11.323Z,97140.91
2022-11-08T07:16:16.609Z,97130.47
2022-11-08T07:21:20.018Z,97127.75
2022-11-08T07:26:23.537Z,97125.63
2022-11-08T07:31:28.829Z,97108.22
2022-11-08T07:36:32.229Z,97107.25
2022-11-08T07:41:35.724Z,97103.75
2022-11-08T07:46:40.582Z,97096.97
2022-11-08T07:51:44.018Z,97086.72
2022-11-08T07:56:47.561Z,97095.25
2022-11-08T08:01:52.529Z,97099.44
2022-11-08T08:06:56.259Z,97095.34
2022-11-08T08:11:59.775Z,97103.03
2022-11-08T08:17:04.669Z,97095.25
2022-11-08T08:22:08.379Z,97081.69
2022-11-08T08:27:12.385Z,97092.59
2022-11-08T08:32:17.180Z,97088.00
2022-11-08T08:37:20.535Z,97087.72
2022-11-08T08:42:23.990Z,97093.22
2022-11-08T08:47:29.240Z,97095.50
2022-11-08T08:52:32.772Z,97084.19
2022-11-08T08:57:36.307Z,97085.91
2022-11-08T09:02:42.710Z,97080.53
2022-11-08T09:07:46.361Z,97073.78
2022-11-08T09:12:50.262Z,97064.91
2022-11-08T09:17:56.333Z,97063.75
2022-11-08T09:23:02.489Z,97058.91
2022-11-08T09:28:06.337Z,97062.31
2022-11-08T09:33:11.164Z,97073.13
2022-11-08T09:38:14.864Z,97068.69
2022-11-08T09:43:37.399Z,97059.41
2022-11-08T09:48:45.249Z,97058.78
2022-11-08T09:53:53.009Z,97051.34
2022-11-08T09:59:02.215Z,97049.63
2022-11-08T10:04:15.008Z,97054.41
2022-11-08T10:09:33.484Z,97066.00
2022-11-08T10:14:54.510Z,97059.94
2022-11-08T10:20:13.653Z,97051.38
2022-11-08T10:25:24.112Z,97050.41
2022-11-08T10:30:33.567Z,97059.19
2022-11-08T10:35:45.363Z,97036.38
2022-11-08T10:40:58.378Z,97044.69
2022-11-08T10:46:02.227Z,97042.09
2022-11-08T10:51:07.463Z,97029.41
2022-11-08T10:56:11.012Z,97028.59
2022-11-08T11:01:18.149Z,97019.50
2022-11-08T11:06:25.878Z,97021.94
2022-11-08T11:11:38.065Z,97006.41
2022-11-08T11:16:54.888Z,97007.97
2022-11-08T11:22:05.948Z,97010.97
2022-11-08T11:27:21.884Z,96988.47
2022-11-08T11:32:33.675Z,96995.63
2022-11-08T11:37:43.835Z,96986.63
2022-11-08T11:42:57.946Z,96991.66
2022-11-08T11:48:06.014Z,96976.47
2022-11-08T11:53:18.010Z,96973.28
2022-11-08T11:58:35.146Z,96951.19
2022-11-08T12:03:55.119Z,96937.50
2022-11-08T12:09:20.420Z,96937.69
2022-11-08T12:14:35.074Z,96928.59
2022-11-08T12:19:46.393Z,96926.72
2022-11-08T12:24:58.732Z,96923.13
2022-11-08T12:30:05.385Z,96925.53
2022-11-08T12:35:20.890Z,96926.47
2022-11-08T12:40:34.116Z,96931.63
2022-11-08T12:45:51.162Z,96945.38
2022-11-08T12:51:05.694Z,96931.59
2022-11-08T12:56:16.690Z,96927.97
2022-11-08T13:01:22.598Z,96916.16
2022-11-08T13:06:31.336Z,96919.47
2022-11-08T13:11:46.567Z,96908.13
2022-11-08T13:17:15.251Z,96897.06
2022-11-08T13:22:47.874Z,96914.88
2022-11-08T13:27:52.787Z,96893.94
2022-11-08T13:33:05.434Z,96870.84
2022-11-08T13:38:22.925Z,96873.84
2022-11-08T13:43:30.446Z,96886.50
2022-11-08T13:49:06.640Z,96884.50
2022-11-08T13:54:43.364Z,96893.44
2022-11-08T13:59:57.778Z,96887.75
2022-11-08T14:05:28.991Z,96885.16
2022-11-08T14:10:42.066Z,96876.06
2022-11-08T14:15:52.059Z,96863.84
2022-11-08T14:20:56.169Z,96869.28
2022-11-08T14:26:02.951Z,96879.53
2022-11-08T14:31:14.458Z,96846.94
2022-11-08T14:36:19.834Z,96857.63
2022-11-08T14:41:27.220Z,96851.63
2022-11-08T14:46:35.805Z,96858.16
2022-11-08T14:51:39.628Z,96858.69
2022-11-08T14:56:45.081Z,96843.00
2022-11-08T15:01:50.841Z,96847.34
2022-11-08T15:06:57.378Z,96858.88
2022-11-08T15:12:04.275Z,96865.28
2022-11-08T15:17:34.292Z,96861.09
2022-11-08T15:22:38.458Z,96863.09
2022-11-08T15:27:47.969Z,96867.72
2022-11-08T15:32:52.859Z,96864.38
2022-11-08T15:38:01.480Z,96868.69
2022-11-08T15:43:05.328Z,96870.44
2022-11-08T15:48:22.324Z,96859.50
2022-11-08T15:53:26.992Z,96869.91
2022-11-08T15:58:38.273Z,96856.97
2022-11-08T16:03:45.050Z,96850.97
2022-11-08T16:08:48.631Z,96853.00
2022-11-08T16:13:52.496Z,96850.00
2022-11-08T16:18:57.843Z,96860.97
2022-11-08T16:24:01.295Z,96853.50
2022-11-08T16:29:06.070Z,96859.13
2022-11-08T16:34:12.250Z,96859.31
2022-11-08T16:39:17.739Z,96853.63
2022-11-08T16:44:21.101Z,96855.91
2022-11-08T16:49:27.134Z,96851.84
2022-11-08T16:54:30.467Z,96856.66
2022-11-08T16:59:34.057Z,96852.75
2022-11-08T17:04:38.850Z,96852.91
2022-11-08T17:09:42.861Z,96859.72
2022-11-08T17:14:46.460Z,96856.09
2022-11-08T17:19:51.772Z,96854.63
2022-11-08T17:24:55.978Z,96852.03
2022-11-08T17:30:02.092Z,96863.00
2022-11-08T17:35:09.473Z,96877.81
2022-11-08T17:40:13.329Z,96872.31
2022-11-08T17:45:16.821Z,96879.78
2022-11-08T17:50:21.814Z,96884.97
2022-11-08T17:55:25.963Z,96887.50
2022-11-08T18:00:29.523Z,96882.38
2022-11-08T18:05:34.458Z,96889.66
2022-11-08T18:10:38.069Z,96902.03
2022-11-08T18:15:41.857Z,96897.66
2022-11-08T18:20:47.419Z,96896.63
2022-11-08T18:25:53.297Z,96912.41
2022-11-08T18:30:56.631Z,96919.03
2022-11-08T18:36:05.707Z,96930.31
2022-11-08T18:41:09.665Z,96932.97
2022-11-08T18:46:14.779Z,96939.50
2022-11-08T18:51:21.569Z,96941.22
2022-11-08T18:56:25.372Z,96944.03
2022-11-08T19:01:29.929Z,96937.25
2022-11-08T19:06:35.207Z,96940.31
2022-11-08T19:11:38.883Z,96945.13
2022-11-08T19:16:42.875Z,96945.03
2022-11-08T19:21:47.982Z,96951.41
2022-11-08T19:26:51.484Z,96961.50
2022-11-08T19:31:56.626Z,96951.25
2022-11-08T19:37:01.451Z,96954.53
2022-11-08T19:42:06.204Z,96959.09
2022-11-08T19:47:10.300Z,96960.94
2022-11-08T19:52:16.362Z,96959.56
2022-11-08T19:57:20.347Z,96959.97
2022-11-08T20:02:24.232Z,96953.72
2022-11-08T20:07:29.698Z,96957.59
2022-11-08T20:12:33.763Z,96948.88
2022-11-08T20:17:37.680Z,96958.25
2022-11-08T20:22:46.975Z,96967.84
2022-11-08T20:27:51.936Z,96968.47
2022-11-08T20:32:55.370Z,96969.25
2022-11-08T20:38:00.811Z,96966.56
2022-11-08T20:43:04.280Z,96965.19
2022-11-08T20:48:08.071Z,96977.72
2022-11-08T20:53:13.181Z,96979.69
2022-11-08T20:58:16.810Z,96982.34
2022-11-08T21:03:20.487Z,96976.41
2022-11-08T21:08:58.467Z,96975.19
2022-11-08T21:13:49.819Z,96970.13
2022-11-08T21:18:53.523Z,96978.94
2022-11-08T21:23:58.289Z,96974.28
2022-11-08T21:29:02.197Z,96981.09
2022-11-08T21:34:05.562Z,96971.41
2022-11-08T21:39:11.683Z,96957.31
2022-11-08T21:44:15.482Z,96958.41
2022-11-08T21:49:18.780Z,96968.44
2022-11-08T21:54:23.659Z,96961.28
2022-11-08T21:59:27.108Z,96970.50
2022-11-08T22:04:30.637Z,96967.78
2022-11-08T22:09:35.455Z,96969.28
2022-11-08T22:14:38.997Z,96968.25
2022-11-08T22:19:42.771Z,96960.50
2022-11-08T22:24:47.448Z,96962.34
2022-11-08T22:29:51.126Z,96955.59
2022-11-08T22:34:54.433Z,96956.50
2022-11-08T22:39:59.291Z,96953.91
2022-11-08T22:45:02.853Z,96962.06
2022-11-08T22:50:06.955Z,96970.13
2022-11-08T22:55:11.929Z,96969.00
2022-11-08T23:00:16.075Z,96963.81
2022-11-08T23:05:19.555Z,96953.28
2022-11-08T23:10:24.337Z,96953.13
2022-11-08T23:15:45.260Z,96958.88
2022-11-08T23:21:05.898Z,96953.19
2022-11-08T23:26:10.664Z,96959.25
2022-11-08T23:31:31.117Z,96954.50
2022-11-08T23:36:34.428Z,96954.03
2022-11-08T23:41:56.396Z,96949.50
2022-11-08T23:47:01.392Z,96955.31
2022-11-08T23:52:04.939Z,96957.81
2022-11-08T23:57:09.774Z,96955.91
